Time;durP1;ratioP1;P1;durP2;ratioP2;P2;SDS_P1;SDS_P2;PMS_P1;PMS_P2;Temp;Humidity;BMP_temperature;BMP_pressure;BME280_temperature;BME280_humidity;BME280_pressure;Samples;Min_cycle;Max_cycle;Signal;HPM_P1;HPM_P2
2022/02/04 00:08:29;;;;;;;;;;;;;;;9.66;75.77;99922.94;6125776;23;19959;-79
2022/02/04 00:24:43;;;;;;;;;;;;;;;9.87;75.23;99921.03;6226714;23;19961;-79
2022/02/04 00:27:15;;;;;;;;;;;;;;;9.90;75.07;99908.72;6220346;23;19991;-80
2022/02/04 00:29:57;;;;;;;;;;;;;;;9.94;75.05;99905.19;6196602;23;19995;-79
2022/02/04 00:32:25;;;;;;;;;;;;;;;9.99;74.64;99895.31;6191700;23;19942;-80
2022/02/04 00:34:52;;;;;;;;;;;;;;;10.01;74.99;99893.16;6196320;23;19916;-79
2022/02/04 00:39:58;;;;;;;;;;;;;;;10.09;74.67;99900.78;6221028;23;19941;-81
2022/02/04 00:42:24;;;;;;;;;;;;;;;10.09;74.34;99889.84;6247395;23;19954;-79
2022/02/04 00:44:57;;;;;;;;;;;;;;;10.11;74.39;99888.50;6246545;23;20315;-80
2022/02/04 00:47:34;;;;;;;;;;;;;;;10.12;74.69;99889.31;6219583;23;19954;-79
2022/02/04 00:50:13;;;;;;;;;;;;;;;10.13;74.43;99886.31;6195707;23;19911;-77
2022/02/04 00:55:26;;;;;;;;;;;;;;;10.13;74.58;99896.41;6218668;23;19912;-78
2022/02/04 01:28:12;;;;;;;;;;;;;;;9.70;78.74;99852.22;6246039;23;19938;-76
2022/02/04 01:30:39;;;;;;;;;;;;;;;9.68;78.85;99852.50;6246076;22;19912;-74
2022/02/04 01:33:06;;;;;;;;;;;;;;;9.69;78.81;99845.94;6245356;23;19919;-73
2022/02/04 01:35:31;;;;;;;;;;;;;;;9.70;78.70;99833.13;6246539;23;20321;-73
2022/02/04 01:37:56;;;;;;;;;;;;;;;9.74;78.33;99834.22;6246919;23;19939;-73
2022/02/04 01:40:25;;;;;;;;;;;;;;;9.59;78.65;99854.97;6247586;23;20305;-73
2022/02/04 01:42:50;;;;;;;;;;;;;;;9.70;78.01;99824.94;6221175;23;20219;-74
2022/02/04 01:45:15;;;;;;;;;;;;;;;9.76;78.29;99821.09;6246077;23;19934;-74
2022/02/04 01:47:54;;;;;;;;;;;;;;;9.76;77.61;99823.81;6247368;23;19933;-74
2022/02/04 01:50:19;;;;;;;;;;;;;;;9.88;77.40;99832.53;6221101;23;19946;-74
2022/02/04 01:52:47;;;;;;;;;;;;;;;9.90;77.11;99813.97;6247202;23;19907;-74
2022/02/04 01:55:16;;;;;;;;;;;;;;;9.83;77.19;99821.63;6247468;23;19943;-74
2022/02/04 01:57:42;;;;;;;;;;;;;;;9.86;76.93;99810.16;6221405;23;19998;-74
2022/02/04 02:00:08;;;;;;;;;;;;;;;9.81;76.99;99803.88;6223758;23;20269;-74
2022/02/04 02:02:34;;;;;;;;;;;;;;;9.75;76.57;99809.38;6248104;23;19918;-75
2022/02/04 02:04:59;;;;;;;;;;;;;;;9.83;76.45;99788.84;6253492;23;19962;-74
2022/02/04 02:07:26;;;;;;;;;;;;;;;9.82;76.60;99786.41;6222430;23;19939;-73
2022/02/04 02:10:06;;;;;;;;;;;;;;;9.82;75.88;99787.22;6248779;23;19947;-74
2022/02/04 02:12:41;;;;;;;;;;;;;;;9.87;75.68;99789.09;6249603;23;19915;-73
2022/02/04 02:34:56;;;;;;;;;;;;;;;9.73;76.52;99756.94;6259318;23;19920;-73
2022/02/04 02:53:52;;;;;;;;;;;;;;;9.82;76.38;99754.44;6265294;23;20238;-73
2022/02/04 02:58:14;;;;;;;;;;;;;;;9.78;76.65;99759.66;6223424;23;19994;-73
2022/02/04 03:03:27;;;;;;;;;;;;;;;9.79;77.20;99738.63;6260588;23;19907;-74
2022/02/04 03:05:52;;;;;;;;;;;;;;;9.82;77.18;99748.97;6248943;23;19922;-74
2022/02/04 03:08:21;;;;;;;;;;;;;;;9.78;77.69;99739.72;6221038;23;20238;-74
2022/02/04 03:10:47;;;;;;;;;;;;;;;9.54;79.29;99742.25;6222073;23;19954;-74
2022/02/04 03:13:13;;;;;;;;;;;;;;;9.52;79.89;99728.88;6249369;23;19927;-74
2022/02/04 03:15:38;;;;;;;;;;;;;;;9.47;80.35;99726.13;6221156;23;19915;-74
2022/02/04 03:18:18;;;;;;;;;;;;;;;;;;;;;
2022/02/04 03:20:52;;;;;;;;;;;;;;;9.32;81.56;99710.59;6247104;23;20426;-73
2022/02/04 03:23:20;;;;;;;;;;;;;;;9.30;81.67;99717.44;6221873;23;19907;-74
2022/02/04 03:25:51;;;;;;;;;;;;;;;9.21;82.20;99715.28;6249416;23;19907;-74
2022/02/04 03:28:22;;;;;;;;;;;;;;;9.18;82.72;99720.44;6248861;23;19907;-73
2022/02/04 03:30:49;;;;;;;;;;;;;;;9.15;82.55;99712.81;6222476;23;19915;-73
2022/02/04 03:33:17;;;;;;;;;;;;;;;9.14;82.74;99701.09;6249600;23;19922;-72
2022/02/04 03:35:42;;;;;;;;;;;;;;;9.15;82.23;99691.78;6249838;23;19920;-74
2022/02/04 03:38:08;;;;;;;;;;;;;;;9.21;82.08;99690.72;6251857;23;19914;-72
2022/02/04 03:40:33;;;;;;;;;;;;;;;9.17;82.38;99689.63;6251269;23;19994;-72
2022/02/04 03:42:58;;;;;;;;;;;;;;;9.19;82.30;99675.72;6198731;23;19935;-73
2022/02/04 03:45:24;;;;;;;;;;;;;;;9.23;81.86;99677.59;6252065;23;20400;-72
2022/02/04 03:47:49;;;;;;;;;;;;;;;9.29;81.47;99674.84;6250547;23;19915;-73
2022/02/04 03:50:15;;;;;;;;;;;;;;;9.39;81.03;99680.31;6253156;23;19907;-73
2022/02/04 03:52:41;;;;;;;;;;;;;;;9.32;81.22;99666.16;6226539;23;19959;-71
2022/02/04 03:55:07;;;;;;;;;;;;;;;9.31;80.81;99675.41;6255239;23;20309;-71
2022/02/04 03:57:34;;;;;;;;;;;;;;;9.30;81.46;99649.22;6255618;23;19920;-72
2022/02/04 04:00:00;;;;;;;;;;;;;;;9.41;80.87;99656.28;6251224;23;20033;-71
2022/02/04 04:02:25;;;;;;;;;;;;;;;9.44;80.21;99636.63;6249499;23;19907;-70
2022/02/04 04:04:51;;;;;;;;;;;;;;;9.37;80.12;99625.19;6250451;23;19907;-72
2022/02/04 04:07:16;;;;;;;;;;;;;;;9.35;79.58;99620.00;6223318;23;19945;-72
2022/02/04 04:09:49;;;;;;;;;;;;;;;9.18;79.93;99620.31;6250839;23;19915;-72
2022/02/04 04:12:16;;;;;;;;;;;;;;;9.07;80.26;99614.06;6249598;23;20279;-70
2022/02/04 04:14:46;;;;;;;;;;;;;;;9.03;80.28;99602.09;6251756;23;19982;-70
2022/02/04 04:17:11;;;;;;;;;;;;;;;8.92;80.76;99600.47;6253494;23;19983;-71
2022/02/04 04:19:39;;;;;;;;;;;;;;;8.88;81.07;99605.66;6251879;23;20079;-71
2022/02/04 04:22:04;;;;;;;;;;;;;;;8.85;81.01;99595.31;6250751;23;19923;-73
2022/02/04 04:24:30;;;;;;;;;;;;;;;8.88;80.82;99588.50;6201765;23;19911;-72
2022/02/04 04:26:55;;;;;;;;;;;;;;;8.82;81.16;99595.84;6251111;23;19916;-71
2022/02/04 04:29:20;;;;;;;;;;;;;;;8.88;81.19;99605.66;6249148;23;19912;-69
2022/02/04 04:31:45;;;;;;;;;;;;;;;8.93;80.79;99584.94;6251873;23;19945;-73
2022/02/04 04:34:11;;;;;;;;;;;;;;;8.93;80.85;99591.19;6225674;23;19939;-70
2022/02/04 04:36:37;;;;;;;;;;;;;;;9.00;80.80;99589.00;6253329;23;19922;-72
2022/02/04 05:30:04;;;;;;;;;;;;;;;9.72;75.21;99541.53;6249310;23;20022;-74
2022/02/04 05:32:29;;;;;;;;;;;;;;;9.78;74.60;99541.22;6199596;23;20304;-72
2022/02/04 05:34:55;;;;;;;;;;;;;;;9.79;74.58;99542.03;6253244;23;19965;-72
2022/02/04 05:37:23;;;;;;;;;;;;;;;9.75;74.93;99519.09;6252561;23;19908;-70
2022/02/04 05:40:02;;;;;;;;;;;;;;;9.82;74.89;99541.47;6201662;23;20510;-73
2022/02/04 05:42:31;;;;;;;;;;;;;;;9.77;74.69;99523.19;6253094;23;19916;-73
2022/02/04 05:45:02;;;;;;;;;;;;;;;9.86;74.50;99526.16;6227271;23;20547;-72
2022/02/04 05:47:28;;;;;;;;;;;;;;;9.80;74.18;99519.09;6225957;23;19908;-72
2022/02/04 05:50:21;;;;;;;;;;;;;;;9.81;74.14;99539.00;6252768;23;19916;-73
2022/02/04 05:53:01;;;;;;;;;;;;;;;9.82;73.95;99541.47;6252487;23;20041;-73
2022/02/04 05:58:39;;;;;;;;;;;;;;;9.84;73.73;99544.75;6245134;23;19971;-71
2022/02/04 06:06:26;;;;;;;;;;;;;;;9.91;73.37;99511.63;6252427;23;20029;-72
2022/02/04 06:11:56;;;;;;;;;;;;;;;9.97;73.22;99496.84;6219737;23;19945;-72
2022/02/04 06:22:41;;;;;;;;;;;;;;;9.98;73.16;99473.09;6218557;23;19941;-73
2022/02/04 06:25:11;;;;;;;;;;;;;;;9.98;73.20;99467.63;6240320;23;20315;-73
2022/02/04 06:27:37;;;;;;;;;;;;;;;10.01;73.32;99456.13;6216930;23;19950;-74
2022/02/04 06:30:03;;;;;;;;;;;;;;;10.00;73.69;99470.88;6216773;23;20310;-74
2022/02/04 06:32:29;;;;;;;;;;;;;;;9.93;73.86;99450.19;6244525;23;19951;-73
2022/02/04 06:34:54;;;;;;;;;;;;;;;10.00;73.87;99438.09;6193975;23;19939;-74
2022/02/04 06:37:20;;;;;;;;;;;;;;;9.95;73.67;99436.25;6243282;23;19921;-72
2022/02/04 06:39:45;;;;;;;;;;;;;;;9.91;74.24;99430.50;6243099;23;19941;-73
2022/02/04 06:42:28;;;;;;;;;;;;;;;10.00;73.60;99432.63;6217154;23;19911;-74
2022/02/04 06:44:54;;;;;;;;;;;;;;;10.00;73.98;99438.09;6234017;23;19911;-73
2022/02/04 06:47:20;;;;;;;;;;;;;;;9.99;74.12;99452.84;6243802;23;20369;-74
2022/02/04 06:49:46;;;;;;;;;;;;;;;10.00;73.62;99421.72;6243572;23;19931;-72
2022/02/04 06:52:12;;;;;;;;;;;;;;;9.97;73.58;99417.63;6219040;23;19986;-72
2022/02/04 06:54:37;;;;;;;;;;;;;;;9.99;73.41;99425.53;6248814;23;19912;-72
2022/02/04 06:57:03;;;;;;;;;;;;;;;9.93;73.76;99401.03;6220134;23;19918;-71
2022/02/04 06:59:28;;;;;;;;;;;;;;;9.90;73.98;99407.06;6195790;23;19912;-72
2022/02/04 07:01:54;;;;;;;;;;;;;;;9.83;75.30;99394.81;6220529;23;19918;-73
2022/02/04 07:04:29;;;;;;;;;;;;;;;9.80;76.25;99396.22;6248240;23;19908;-73
2022/02/04 07:06:57;;;;;;;;;;;;;;;9.73;76.63;99412.91;6195167;23;20223;-73
2022/02/04 07:09:38;;;;;;;;;;;;;;;9.60;77.52;99387.09;6221613;23;19919;-73
2022/02/04 07:19:47;;;;;;;;;;;;;;;9.39;79.50;99367.34;6243132;23;19934;-72
2022/02/04 07:22:17;;;;;;;;;;;;;;;9.35;80.38;99362.72;6216863;23;19959;-72
2022/02/04 07:24:53;;;;;;;;;;;;;;;9.23;81.81;99380.25;6241698;23;19919;-72
2022/02/04 07:27:18;;;;;;;;;;;;;;;9.23;82.71;99407.53;6217442;23;19907;-74
2022/02/04 07:29:47;;;;;;;;;;;;;;;9.14;84.63;99461.06;6215937;23;20234;-72
2022/02/04 07:32:21;;;;;;;;;;;;;;;8.94;84.90;99461.16;6242337;23;19993;-70
2022/02/04 07:42:52;;;;;;;;;;;;;;;7.74;86.80;99489.59;6242441;23;19922;-71
2022/02/04 07:45:18;;;;;;;;;;;;;;;7.67;87.53;99513.53;6190523;23;19911;-72
2022/02/04 07:47:43;;;;;;;;;;;;;;;7.79;87.79;99519.53;6244959;23;19915;-74
2022/02/04 07:50:09;;;;;;;;;;;;;;;7.91;87.32;99540.22;6241696;23;19946;-72
2022/02/04 07:52:42;;;;;;;;;;;;;;;7.91;87.18;99551.13;6243256;23;19915;-71
2022/02/04 07:55:08;;;;;;;;;;;;;;;7.74;85.92;99563.06;6241322;23;20277;-72
2022/02/04 07:57:34;;;;;;;;;;;;;;;7.54;85.22;99576.63;6215967;23;19942;-72
2022/02/04 08:00:13;;;;;;;;;;;;;;;;;;;;;
2022/02/04 08:02:41;;;;;;;;;;;;;;;7.04;83.81;99617.69;6242705;23;19994;-74
2022/02/04 08:05:12;;;;;;;;;;;;;;;6.84;84.28;99609.41;6242285;23;19943;-73
2022/02/04 08:07:53;;;;;;;;;;;;;;;6.64;84.24;99622.59;6244151;23;19907;-72
2022/02/04 08:10:40;;;;;;;;;;;;;;;6.45;84.79;99627.59;6243062;23;19915;-72
2022/02/04 08:18:45;;;;;;;;;;;;;;;6.09;84.47;99607.44;6255245;23;19908;-73
2022/02/04 08:55:57;;;;;;;;;;;;;;;6.01;86.06;99747.13;6218468;23;19919;-74
2022/02/04 08:58:35;;;;;;;;;;;;;;;6.05;86.97;99764.53;6215401;23;20333;-74
2022/02/04 09:01:38;;;;;;;;;;;;;;;6.09;87.40;99768.41;6217670;23;20377;-74
2022/02/04 09:04:05;;;;;;;;;;;;;;;6.10;86.98;99772.75;6243805;23;19915;-75
2022/02/04 09:06:43;;;;;;;;;;;;;;;6.07;85.54;99778.66;6243943;23;19912;-73
2022/02/04 09:09:15;;;;;;;;;;;;;;;6.08;86.00;99801.22;6215518;23;19982;-77
2022/02/04 09:11:53;;;;;;;;;;;;;;;6.10;86.40;99810.78;6245331;23;19954;-73
2022/02/04 09:20:35;;;;;;;;;;;;;;;6.35;86.79;99811.31;6233310;23;20274;-73
2022/02/04 09:23:09;;;;;;;;;;;;;;;6.37;86.19;99815.44;6244775;23;19919;-76
2022/02/04 09:25:38;;;;;;;;;;;;;;;6.46;85.95;99823.97;6213541;23;19929;-73
2022/02/04 09:28:06;;;;;;;;;;;;;;;6.53;85.12;99818.34;6193584;23;19946;-74
2022/02/04 09:30:35;;;;;;;;;;;;;;;6.57;84.50;99817.59;6241385;23;19908;-74
2022/02/04 09:33:00;;;;;;;;;;;;;;;6.59;85.18;99818.13;6192402;23;19915;-72
2022/02/04 09:35:31;;;;;;;;;;;;;;;6.59;84.37;99814.59;6216717;23;20038;-73
2022/02/04 09:38:01;;;;;;;;;;;;;;;6.67;85.40;99816.84;6218203;23;19915;-74
2022/02/04 09:40:30;;;;;;;;;;;;;;;6.88;85.79;99831.50;6241714;23;20333;-75
2022/02/04 09:42:55;;;;;;;;;;;;;;;7.38;86.06;99839.56;6217212;23;19942;-73
2022/02/04 09:45:26;;;;;;;;;;;;;;;7.91;84.75;99842.41;6218258;23;19908;-76
2022/02/04 09:48:04;;;;;;;;;;;;;;;8.17;83.03;99857.81;6221557;23;19908;-75
2022/02/04 09:50:32;;;;;;;;;;;;;;;8.72;83.08;99863.81;6248003;23;19912;-77
2022/02/04 10:21:13;;;;;;;;;;;;;;;11.94;71.31;99897.13;6268437;23;19911;-77
2022/02/04 10:24:05;;;;;;;;;;;;;;;12.75;69.51;99908.34;6271940;23;19902;-78
2022/02/04 10:26:30;;;;;;;;;;;;;;;13.28;66.46;99926.59;6219541;23;19959;-81
2022/02/04 10:28:58;;;;;;;;;;;;;;;13.32;65.85;99926.00;6237280;23;19907;-78
2022/02/04 10:31:25;;;;;;;;;;;;;;;13.30;64.49;99933.72;6206782;23;19922;-77
2022/02/04 10:34:22;;;;;;;;;;;;;;;13.22;64.44;99932.47;6259723;23;19912;-78
2022/02/04 10:49:08;;;;;;;;;;;;;;;15.60;59.78;99962.84;6058605;23;19934;-76
2022/02/04 11:02:58;;;;;;;;;;;;;;;15.75;53.37;99976.25;6089717;23;19913;-73
2022/02/04 11:05:45;;;;;;;;;;;;;;;15.82;52.96;99987.69;6130109;23;20029;-72
2022/02/04 11:43:41;;;;;;;;;;;;;;;17.48;39.57;100029.16;6259004;23;19922;-73
2022/02/04 11:57:04;;;;;;;;;;;;;;;19.25;31.57;100042.47;6247619;23;19911;-73
2022/02/04 11:59:34;;;;;;;;;;;;;;;19.07;30.78;100058.34;6223570;23;20230;-71
2022/02/04 12:01:59;;;;;;;;;;;;;;;18.74;30.99;100028.47;6245198;23;20638;-73
2022/02/04 12:04:25;;;;;;;;;;;;;;;18.63;30.69;100028.00;6249841;23;19907;-75
2022/02/04 12:06:50;;;;;;;;;;;;;;;18.20;30.23;100035.25;6223454;23;19914;-75
2022/02/04 12:09:40;;;;;;;;;;;;;;;17.82;30.61;100046.13;6221185;23;19907;-74
2022/02/04 12:12:09;;;;;;;;;;;;;;;17.89;32.65;100044.50;6209068;23;19931;-74
2022/02/04 12:14:38;;;;;;;;;;;;;;;18.34;30.43;100043.38;6246197;23;19918;-74
2022/02/04 12:17:06;;;;;;;;;;;;;;;18.72;30.17;100047.34;6249073;23;19911;-75
2022/02/04 12:19:48;;;;;;;;;;;;;;;19.08;29.79;100054.44;6219573;23;20577;-76
2022/02/04 12:22:34;;;;;;;;;;;;;;;19.54;28.68;100069.38;6221390;23;20307;-75
2022/02/04 12:24:59;;;;;;;;;;;;;;;20.17;29.16;100071.41;6213322;23;19912;-75
2022/02/04 12:27:24;;;;;;;;;;;;;;;20.58;26.84;100059.41;6244486;23;19911;-75
2022/02/04 12:29:52;;;;;;;;;;;;;;;20.70;27.17;100063.41;6216564;23;19908;-75
2022/02/04 12:32:19;;;;;;;;;;;;;;;21.21;27.70;100063.16;6192529;23;19957;-76
2022/02/04 12:34:50;;;;;;;;;;;;;;;21.22;25.40;100087.03;6218367;23;20237;-76
2022/02/04 12:37:23;;;;;;;;;;;;;;;20.53;26.30;100072.69;6217902;23;20273;-75
2022/02/04 12:39:48;;;;;;;;;;;;;;;20.58;26.48;100086.38;6217933;23;19914;-75
2022/02/04 12:42:16;;;;;;;;;;;;;;;21.31;28.25;100084.94;6222093;23;19943;-76
2022/02/04 12:44:47;;;;;;;;;;;;;;;21.75;25.12;100096.28;6225275;23;19908;-75
2022/02/04 12:47:25;;;;;;;;;;;;;;;;;;;;;
2022/02/04 12:49:51;;;;;;;;;;;;;;;21.58;24.65;100100.16;6244405;23;19979;-75
2022/02/04 12:52:24;;;;;;;;;;;;;;;21.50;24.72;100097.44;6245142;23;19919;-76
2022/02/04 13:03:20;;;;;;;;;;;;;;;20.02;25.12;100093.06;6265946;23;19939;-74
2022/02/04 13:11:10;;;;;;;;;;;;;;;15.01;31.99;100118.56;6244946;23;20010;-73
2022/02/04 13:13:45;;;;;;;;;;;;;;;14.21;33.81;100105.84;6216289;23;19914;-72
2022/02/04 13:16:19;;;;;;;;;;;;;;;14.41;34.04;100116.53;6220828;23;19912;-73
2022/02/04 13:18:44;;;;;;;;;;;;;;;13.77;34.49;100121.56;6218128;23;19918;-73
2022/02/04 13:21:11;;;;;;;;;;;;;;;12.60;36.38;100108.78;6216455;23;20014;-71
2022/02/04 13:23:37;;;;;;;;;;;;;;;11.83;38.01;100117.50;6245466;23;20332;-74
2022/02/04 13:26:11;;;;;;;;;;;;;;;11.44;39.34;100115.47;6245909;23;19923;-76
2022/02/04 13:28:41;;;;;;;;;;;;;;;11.70;40.07;100119.72;6220367;23;19912;-73
2022/02/04 13:31:06;;;;;;;;;;;;;;;13.27;38.15;100119.09;6216366;23;19974;-73
2022/02/04 13:33:38;;;;;;;;;;;;;;;14.77;35.50;100121.44;6194773;23;19916;-72
2022/02/04 13:42:26;;;;;;;;;;;;;;;15.34;34.18;100131.44;6227530;23;20191;-75
2022/02/04 13:44:41;;;;;;;;;;;;;;;14.51;35.16;100143.03;6207780;23;19931;-73
2022/02/04 13:47:17;;;;;;;;;;;;;;;14.78;36.60;100134.09;6222680;23;20338;-75
2022/02/04 13:50:19;;;;;;;;;;;;;;;15.50;34.60;100135.53;6203861;23;19911;-75
2022/02/04 13:55:52;;;;;;;;;;;;;;;16.46;32.42;100127.41;6224928;23;19907;-75
2022/02/04 14:01:33;;;;;;;;;;;;;;;16.83;31.25;100147.47;6107853;23;20006;-74
2022/02/04 14:04:03;;;;;;;;;;;;;;;17.22;30.34;100145.94;6213936;23;19912;-76
2022/02/04 14:06:31;;;;;;;;;;;;;;;17.06;29.59;100155.78;6228707;23;19908;-76
2022/02/04 14:09:07;;;;;;;;;;;;;;;16.35;31.05;100170.16;6195198;23;19907;-76
2022/02/04 14:11:44;;;;;;;;;;;;;;;15.72;31.79;100156.03;6194613;23;19931;-77
2022/02/04 14:14:14;;;;;;;;;;;;;;;16.18;32.11;100157.03;6221063;23;19919;-75
2022/02/04 14:16:44;;;;;;;;;;;;;;;17.42;30.94;100158.41;6222503;23;19983;-75
2022/02/04 14:19:17;;;;;;;;;;;;;;;18.76;29.73;100167.41;6224305;23;19908;-76
2022/02/04 14:21:47;;;;;;;;;;;;;;;19.88;28.16;100164.66;6197048;23;20116;-76
2022/02/04 14:24:13;;;;;;;;;;;;;;;20.49;26.34;100167.00;6226106;23;19912;-75
2022/02/04 14:26:44;;;;;;;;;;;;;;;20.94;26.01;100171.06;6197444;23;19911;-76
2022/02/04 14:32:24;;;;;;;;;;;;;;;21.74;24.24;100169.00;6081978;23;19928;-77
2022/02/04 14:37:51;;;;;;;;;;;;;;;20.62;25.33;100187.31;6263964;23;19994;-77
2022/02/04 14:51:44;;;;;;;;;;;;;;;19.63;25.33;100200.47;6252527;23;19950;-76
2022/02/04 15:02:13;;;;;;;;;;;;;;;19.15;26.72;100201.63;6231853;23;20289;-76
2022/02/04 15:04:47;;;;;;;;;;;;;;;19.56;26.33;100214.06;6230385;23;19911;-76
2022/02/04 15:07:13;;;;;;;;;;;;;;;19.50;25.93;100215.38;6227263;23;19953;-76
2022/02/04 15:10:25;;;;;;;;;;;;;;;;;;;;;
2022/02/04 15:12:50;;;;;;;;;;;;;;;16.70;28.44;100223.72;6249083;23;19954;-73
2022/02/04 15:15:28;;;;;;;;;;;;;;;15.09;31.50;100213.41;6224685;23;20358;-71
2022/02/04 15:17:54;;;;;;;;;;;;;;;15.18;32.81;100216.28;6248382;23;19915;-76
2022/02/04 15:20:20;;;;;;;;;;;;;;;16.07;32.29;100208.84;6227894;23;19916;-79
2022/02/04 15:22:45;;;;;;;;;;;;;;;16.62;30.03;100218.94;6229133;23;19912;-77
2022/02/04 15:25:17;;;;;;;;;;;;;;;16.81;29.62;100227.06;6228043;23;19918;-74
2022/02/04 15:27:52;;;;;;;;;;;;;;;17.08;29.19;100231.69;6223783;23;19918;-74
2022/02/04 15:30:27;;;;;;;;;;;;;;;17.18;28.82;100230.59;6224773;23;19931;-75
2022/02/04 15:32:52;;;;;;;;;;;;;;;17.31;28.52;100241.91;6225151;23;19950;-74
2022/02/04 15:35:27;;;;;;;;;;;;;;;17.25;28.78;100242.00;6250811;23;19915;-73
2022/02/04 15:37:53;;;;;;;;;;;;;;;17.44;29.39;100257.59;6249962;23;19934;-73
2022/02/04 15:40:18;;;;;;;;;;;;;;;17.45;28.62;100256.47;6248995;23;19916;-75
2022/02/04 15:42:55;;;;;;;;;;;;;;;17.37;28.49;100269.06;6250714;23;19942;-74
2022/02/04 16:15:51;;;;;;;;;;;;;;;10.04;42.57;100316.03;6021842;23;19913;-77
2022/02/04 16:18:21;;;;;;;;;;;;;;;9.74;43.63;100307.41;6180853;23;19998;-79
2022/02/04 16:21:05;;;;;;;;;;;;;;;9.52;44.88;100315.72;6224909;23;20243;-81
2022/02/04 16:23:36;;;;;;;;;;;;;;;9.32;45.47;100318.28;6228031;23;19907;-78
2022/02/04 16:32:10;;;;;;;;;;;;;;;8.66;48.65;100328.28;6166915;23;20351;-78
2022/02/04 16:34:53;;;;;;;;;;;;;;;;;;;;;
2022/02/04 16:47:32;;;;;;;;;;;;;;;7.61;53.56;100345.38;6042608;23;19917;-79
2022/02/04 16:50:24;;;;;;;;;;;;;;;7.50;53.43;100349.84;6259310;23;19912;-79
2022/02/04 16:56:53;;;;;;;;;;;;;;;;;;;;;
2022/02/04 16:59:42;;;;;;;;;;;;;;;;;;;;;
2022/02/04 17:02:28;;;;;;;;;;;;;;;6.91;56.75;100373.84;6237594;23;19947;-77
2022/02/04 17:04:56;;;;;;;;;;;;;;;6.78;57.39;100386.63;6230829;23;19987;-76
2022/02/04 17:07:28;;;;;;;;;;;;;;;6.71;57.98;100385.94;6233083;23;19942;-78
2022/02/04 19:19:38;;;;;;;;;;;;;;;5.27;67.83;100550.78;6265106;22;19919;-84
2022/02/04 19:22:14;;;;;;;;;;;;;;;;;;;;;
2022/02/04 19:34:17;;;;;;;;;;;;;;;5.09;68.66;100545.38;6153219;23;19909;-74
2022/02/04 19:36:45;;;;;;;;;;;;;;;5.08;69.29;100552.66;6156337;23;19936;-76
2022/02/04 19:39:20;;;;;;;;;;;;;;;5.07;69.71;100535.56;6214186;22;19918;-74
2022/02/04 19:42:09;;;;;;;;;;;;;;;5.01;70.27;100546.50;6251430;22;20341;-75
2022/02/04 19:45:16;;;;;;;;;;;;;;;;;;;;;
2022/02/04 20:44:15;;;;;;;;;;;;;;;;;;;;;
2022/02/04 20:46:53;;;;;;;;;;;;;;;;;;;;;
2022/02/04 21:01:57;;;;;;;;;;;;;;;4.72;73.31;100652.66;6274386;22;19912;-80
2022/02/04 21:04:46;;;;;;;;;;;;;;;4.65;74.05;100646.47;6300903;22;19931;-77
2022/02/04 21:07:48;;;;;;;;;;;;;;;;;;;;;
2022/02/04 21:16:53;;;;;;;;;;;;;;;;;;;;;
2022/02/04 21:25:41;;;;;;;;;;;;;;;;;;;;;
2022/02/04 21:28:34;;;;;;;;;;;;;;;;;;;;;
2022/02/04 21:50:00;;;;;;;;;;;;;;;4.27;75.10;100696.09;5943447;24;19911;-77
2022/02/04 21:52:26;;;;;;;;;;;;;;;4.23;75.29;100708.41;5992145;23;19910;-76
2022/02/04 21:55:02;;;;;;;;;;;;;;;4.21;75.43;100707.00;6107643;23;19932;-76
2022/02/04 21:57:33;;;;;;;;;;;;;;;4.18;75.59;100717.19;6194142;23;19912;-78
2022/02/04 21:59:58;;;;;;;;;;;;;;;4.13;75.71;100740.53;6210153;23;19908;-77
2022/02/04 22:02:29;;;;;;;;;;;;;;;4.21;75.09;100726.75;6211045;23;19931;-76
2022/02/04 22:04:58;;;;;;;;;;;;;;;4.20;75.65;100725.09;6235677;23;19908;-78
2022/02/04 22:07:24;;;;;;;;;;;;;;;4.23;75.44;100727.38;6236297;23;19914;-78
2022/02/04 22:10:22;;;;;;;;;;;;;;;4.27;74.68;100731.31;6187814;23;20319;-76
2022/02/04 22:13:11;;;;;;;;;;;;;;;4.26;75.29;100735.06;6269323;22;19988;-78
2022/02/04 22:16:37;;;;;;;;;;;;;;;4.25;74.81;100738.81;6273305;22;19935;-76
2022/02/04 22:24:28;;;;;;;;;;;;;;;4.15;74.35;100758.22;6298648;22;19914;-78
2022/02/04 22:27:01;;;;;;;;;;;;;;;4.12;74.44;100760.56;6246505;22;19981;-76
2022/02/04 22:29:42;;;;;;;;;;;;;;;4.10;74.40;100768.03;6242032;22;19955;-77
2022/02/04 22:32:59;;;;;;;;;;;;;;;;;;;;;
2022/02/04 22:50:27;;;;;;;;;;;;;;;3.74;74.90;100780.22;6132840;23;19942;-77
2022/02/04 22:58:34;;;;;;;;;;;;;;;3.66;75.53;100795.66;6269054;22;19917;-75
2022/02/04 23:01:03;;;;;;;;;;;;;;;3.62;75.22;100794.41;6265101;22;19938;-75
2022/02/04 23:03:38;;;;;;;;;;;;;;;3.61;75.68;100806.25;6286520;22;19907;-73
2022/02/04 23:06:07;;;;;;;;;;;;;;;3.58;75.88;100803.97;6287333;22;20430;-74
2022/02/04 23:08:38;;;;;;;;;;;;;;;3.58;75.70;100809.41;6262139;22;20215;-75
2022/02/04 23:11:07;;;;;;;;;;;;;;;3.56;75.84;100805.22;6238493;22;19911;-75
2022/02/04 23:22:27;;;;;;;;;;;;;;;3.48;75.81;100819.81;6163483;23;20001;-73
2022/02/04 23:27:46;;;;;;;;;;;;;;;3.46;76.00;100821.88;6252362;23;19918;-74
2022/02/04 23:46:54;;;;;;;;;;;;;;;3.37;76.07;100860.97;6260001;23;19947;-74
2022/02/04 23:52:03;;;;;;;;;;;;;;;3.37;75.95;100871.81;6245619;23;19918;-75
2022/02/04 23:54:40;;;;;;;;;;;;;;;;;;;;;
2022/02/04 23:57:09;;;;;;;;;;;;;;;3.36;76.14;100880.94;6244642;23;19991;-73
